createdAt,value
2018-05-03T00:01:58.377Z,100960.55
2018-05-03T00:04:25.944Z,100961.86
2018-05-03T00:06:53.553Z,100961.77
2018-05-03T00:09:21.132Z,100963.83
2018-05-03T00:11:48.762Z,100964.56
2018-05-03T00:14:16.597Z,100965.27
2018-05-03T00:16:44.224Z,100967.26
2018-05-03T00:19:11.815Z,100967.75
2018-05-03T00:21:39.518Z,100968.87
2018-05-03T00:24:07.246Z,100968.55
2018-05-03T00:26:34.803Z,100974.61
2018-05-03T00:29:02.379Z,100981.02
2018-05-03T00:31:29.981Z,100977.01
2018-05-03T00:33:57.539Z,100982.04
2018-05-03T00:36:25.106Z,100983.72
2018-05-03T00:38:53.045Z,100982.94
2018-05-03T00:41:21.104Z,100984.05
2018-05-03T00:43:48.893Z,100978.12
2018-05-03T00:46:16.450Z,100980.13
2018-05-03T00:48:44.043Z,100976.75
2018-05-03T00:51:11.605Z,100988.45
2018-05-03T00:53:39.416Z,100980.20
2018-05-03T00:56:06.996Z,100986.91
2018-05-03T00:58:34.767Z,100996.05
2018-05-03T01:01:02.556Z,100997.58
2018-05-03T01:03:30.162Z,100997.82
2018-05-03T01:05:57.774Z,100998.68
2018-05-03T01:08:25.462Z,101001.63
2018-05-03T01:10:53.191Z,101008.56
2018-05-03T01:13:20.994Z,101009.23
2018-05-03T01:15:48.647Z,101014.32
2018-05-03T01:18:16.197Z,101017.59
2018-05-03T01:20:43.781Z,101017.18
2018-05-03T01:23:11.398Z,101030.37
2018-05-03T01:25:39.013Z,101024.77
2018-05-03T01:28:06.628Z,101033.09
2018-05-03T01:30:34.210Z,101032.17
2018-05-03T01:33:01.792Z,101034.48
2018-05-03T01:35:41.104Z,101036.41
2018-05-03T01:38:08.661Z,101034.30
2018-05-03T01:40:36.217Z,101045.68
2018-05-03T01:43:03.803Z,101042.52
2018-05-03T01:45:31.403Z,101056.65
2018-05-03T01:47:59.191Z,101057.69
2018-05-03T01:50:26.785Z,101065.50
2018-05-03T01:52:54.412Z,101062.62
2018-05-03T01:55:22.459Z,101069.57
2018-05-03T01:57:50.341Z,101077.86
2018-05-03T02:00:17.895Z,101082.47
2018-05-03T02:02:45.471Z,101090.48
2018-05-03T02:05:13.264Z,101083.33
2018-05-03T02:07:41.337Z,101084.80
2018-05-03T02:10:08.951Z,101085.42
2018-05-03T02:12:36.499Z,101099.70
2018-05-03T02:15:04.134Z,101105.81
2018-05-03T02:17:31.766Z,101113.96
2018-05-03T02:19:59.432Z,101116.09
2018-05-03T02:22:27.091Z,101117.71
2018-05-03T02:24:54.644Z,101123.47
2018-05-03T02:27:22.203Z,101118.45
2018-05-03T02:29:49.889Z,101119.22
2018-05-03T02:32:17.479Z,101130.94
2018-05-03T02:34:45.046Z,101124.95
2018-05-03T02:37:12.626Z,101128.95
2018-05-03T02:39:40.447Z,101131.64
2018-05-03T02:42:09.996Z,101144.79
2018-05-03T02:44:37.631Z,101148.47
2018-05-03T02:47:05.549Z,101149.45
2018-05-03T02:49:33.465Z,101153.98
2018-05-03T02:52:01.114Z,101149.66
2018-05-03T02:54:28.901Z,101154.22
2018-05-03T03:00:29.231Z,101161.50
2018-05-03T03:03:14.319Z,101160.38
2018-05-03T03:05:53.653Z,101167.76
2018-05-03T03:12:05.231Z,101181.14
2018-05-03T03:14:50.137Z,101183.64
2018-05-03T03:17:35.346Z,101183.56
2018-05-03T03:23:38.085Z,101189.56
2018-05-03T03:29:32.262Z,101191.26
2018-05-03T03:32:15.780Z,101200.84
2018-05-03T03:34:43.384Z,101196.82
2018-05-03T03:37:32.506Z,101193.59
2018-05-03T03:40:17.608Z,101201.86
2018-05-03T03:45:48.122Z,101211.86
2018-05-03T03:48:16.078Z,101223.03
2018-05-03T03:50:43.662Z,101227.69
2018-05-03T03:53:11.346Z,101229.91
2018-05-03T03:55:39.051Z,101226.44
2018-05-03T03:58:06.844Z,101227.15
2018-05-03T04:00:34.411Z,101243.05
2018-05-03T04:03:02.005Z,101246.76
2018-05-03T04:05:29.590Z,101251.27
2018-05-03T04:07:57.195Z,101255.91
2018-05-03T04:10:24.806Z,101259.88
2018-05-03T04:12:52.485Z,101264.41
2018-05-03T04:15:20.430Z,101257.59
2018-05-03T04:17:59.934Z,101263.50
2018-05-03T04:20:46.518Z,101273.17
2018-05-03T04:26:15.861Z,101281.39
2018-05-03T04:28:43.462Z,101282.53
2018-05-03T04:31:11.013Z,101280.70
2018-05-03T04:33:38.716Z,101293.30
2018-05-03T04:36:06.335Z,101295.35
2018-05-03T04:38:33.888Z,101296.20
2018-05-03T04:41:01.497Z,101305.42
2018-05-03T04:43:29.163Z,101306.30
2018-05-03T04:45:56.748Z,101311.95
2018-05-03T04:48:24.298Z,101313.22
2018-05-03T04:50:51.893Z,101310.92
2018-05-03T04:53:19.527Z,101322.84
2018-05-03T04:55:47.124Z,101328.66
2018-05-03T04:58:14.673Z,101329.34
2018-05-03T05:00:42.294Z,101338.25
2018-05-03T05:03:09.842Z,101336.22
2018-05-03T05:05:37.386Z,101333.75
2018-05-03T05:08:05.032Z,101335.11
2018-05-03T05:10:32.622Z,101335.79
2018-05-03T05:13:00.383Z,101342.81
2018-05-03T05:15:28.195Z,101348.37
2018-05-03T05:17:55.776Z,101350.52
2018-05-03T05:20:23.412Z,101351.72
2018-05-03T05:22:52.159Z,101357.92
2018-05-03T05:25:19.708Z,101359.14
2018-05-03T05:27:47.340Z,101359.41
2018-05-03T05:30:14.966Z,101357.77
2018-05-03T05:32:42.951Z,101366.27
2018-05-03T05:35:10.503Z,101365.84
2018-05-03T05:37:38.290Z,101370.29
2018-05-03T05:40:05.991Z,101375.67
2018-05-03T05:42:33.563Z,101380.09
2018-05-03T05:45:01.126Z,101384.42
2018-05-03T05:47:28.666Z,101390.37
2018-05-03T05:49:56.240Z,101391.56
2018-05-03T05:52:23.801Z,101402.07
2018-05-03T05:54:51.379Z,101402.68
2018-05-03T05:57:19.309Z,101410.17
2018-05-03T05:59:46.845Z,101408.38
2018-05-03T06:02:15.425Z,101411.12
2018-05-03T06:04:43.131Z,101419.16
2018-05-03T06:07:11.175Z,101431.78
2018-05-03T06:09:38.981Z,101432.33
2018-05-03T06:12:06.582Z,101431.67
2018-05-03T06:14:34.145Z,101438.98
2018-05-03T06:17:01.712Z,101438.78
2018-05-03T06:19:29.463Z,101440.25
2018-05-03T06:21:57.043Z,101439.83
2018-05-03T06:24:24.634Z,101442.86
2018-05-03T06:26:52.216Z,101449.81
2018-05-03T06:29:19.849Z,101447.94
2018-05-03T06:31:47.457Z,101447.66
2018-05-03T06:34:15.029Z,101451.02
2018-05-03T06:36:42.593Z,101442.59
2018-05-03T06:39:10.611Z,101439.23
2018-05-03T06:41:38.180Z,101445.98
2018-05-03T06:44:05.739Z,101439.87
2018-05-03T06:46:33.356Z,101447.14
2018-05-03T06:49:01.000Z,101448.07
2018-05-03T06:51:28.637Z,101452.36
2018-05-03T06:53:56.805Z,101447.91
2018-05-03T06:56:24.490Z,101447.48
2018-05-03T06:58:52.124Z,101452.42
2018-05-03T07:01:19.705Z,101452.31
2018-05-03T07:03:47.311Z,101460.44
2018-05-03T07:06:14.879Z,101466.33
2018-05-03T07:08:42.434Z,101470.16
2018-05-03T07:11:10.197Z,101463.33
2018-05-03T07:13:37.757Z,101469.28
2018-05-03T07:16:05.548Z,101470.53
2018-05-03T07:18:33.184Z,101470.99
2018-05-03T07:21:00.768Z,101473.66
2018-05-03T07:23:28.399Z,101477.45
2018-05-03T07:25:55.990Z,101483.34
2018-05-03T07:28:23.557Z,101485.71
2018-05-03T07:30:51.161Z,101488.98
2018-05-03T07:33:19.031Z,101490.16
2018-05-03T07:35:46.842Z,101487.50
2018-05-03T07:38:14.439Z,101487.59
2018-05-03T07:40:42.012Z,101501.47
2018-05-03T07:43:09.562Z,101504.19
2018-05-03T07:45:37.210Z,101506.08
2018-05-03T07:48:04.793Z,101507.16
2018-05-03T07:50:32.370Z,101513.02
2018-05-03T07:53:00.222Z,101511.84
2018-05-03T07:55:28.125Z,101507.14
2018-05-03T07:57:55.681Z,101515.39
2018-05-03T08:00:23.233Z,101518.72
2018-05-03T08:02:50.830Z,101516.81
2018-05-03T08:05:18.682Z,101526.65
2018-05-03T08:07:46.282Z,101516.08
2018-05-03T08:10:14.170Z,101523.02
2018-05-03T08:12:41.830Z,101521.47
2018-05-03T08:15:09.604Z,101521.87
2018-05-03T08:17:37.228Z,101533.77
2018-05-03T08:20:04.795Z,101526.72
2018-05-03T08:22:32.449Z,101531.60
2018-05-03T08:24:59.995Z,101537.95
2018-05-03T08:27:27.575Z,101530.41
2018-05-03T08:29:55.153Z,101534.09
2018-05-03T08:32:22.742Z,101532.87
2018-05-03T08:34:50.311Z,101538.87
2018-05-03T08:37:17.887Z,101542.23
2018-05-03T08:39:45.473Z,101544.75
2018-05-03T08:42:13.156Z,101544.66
2018-05-03T08:44:40.747Z,101539.30
2018-05-03T08:47:08.323Z,101546.08
2018-05-03T08:49:36.029Z,101550.27
2018-05-03T08:52:03.616Z,101549.33
2018-05-03T08:54:31.232Z,101558.98
2018-05-03T08:56:58.873Z,101559.58
2018-05-03T08:59:26.427Z,101554.59
2018-05-03T09:01:54.004Z,101560.77
2018-05-03T09:04:21.598Z,101562.72
2018-05-03T09:06:49.271Z,101569.34
2018-05-03T09:09:17.054Z,101569.17
2018-05-03T09:11:44.753Z,101573.86
2018-05-03T09:14:12.693Z,101575.28
2018-05-03T09:16:40.247Z,101576.75
2018-05-03T09:19:07.791Z,101580.52
2018-05-03T09:21:35.449Z,101580.94
2018-05-03T09:24:03.095Z,101588.76
2018-05-03T09:26:30.651Z,101591.05
2018-05-03T09:28:58.206Z,101598.77
2018-05-03T09:31:26.141Z,101599.64
2018-05-03T09:33:53.720Z,101600.13
2018-05-03T09:36:21.514Z,101602.01
2018-05-03T09:38:49.100Z,101599.85
2018-05-03T09:41:17.103Z,101613.36
2018-05-03T09:43:44.656Z,101621.89
2018-05-03T09:46:12.241Z,101617.67
2018-05-03T09:48:39.897Z,101618.41
2018-05-03T09:51:07.453Z,101629.17
2018-05-03T09:53:35.031Z,101621.64
2018-05-03T09:56:02.592Z,101630.20
2018-05-03T09:58:30.162Z,101635.62
2018-05-03T10:00:57.708Z,101635.76
2018-05-03T10:03:25.412Z,101643.98
2018-05-03T10:05:53.290Z,101646.35
2018-05-03T10:08:20.868Z,101641.98
2018-05-03T10:10:48.687Z,101649.32
2018-05-03T10:13:16.277Z,101644.94
2018-05-03T10:15:43.874Z,101649.39
2018-05-03T10:18:11.432Z,101654.00
2018-05-03T10:20:38.997Z,101655.64
2018-05-03T10:23:06.577Z,101651.28
2018-05-03T10:25:34.121Z,101662.03
2018-05-03T10:28:01.743Z,101663.49
2018-05-03T10:30:29.365Z,101667.98
2018-05-03T10:32:57.003Z,101678.73
2018-05-03T10:35:24.731Z,101674.59
2018-05-03T10:37:52.518Z,101684.45
2018-05-03T10:40:20.094Z,101686.81
2018-05-03T10:42:47.999Z,101694.70
2018-05-03T10:45:15.682Z,101692.04
2018-05-03T10:47:43.303Z,101694.13
2018-05-03T10:50:10.902Z,101696.23
2018-05-03T10:52:38.454Z,101696.09
2018-05-03T10:55:06.240Z,101693.34
2018-05-03T10:57:34.124Z,101689.71
2018-05-03T11:00:01.727Z,101699.31
2018-05-03T11:02:29.646Z,101701.11
2018-05-03T11:04:57.193Z,101696.84
2018-05-03T11:07:24.735Z,101701.08
2018-05-03T11:09:52.346Z,101705.90
2018-05-03T11:12:19.912Z,101703.64
2018-05-03T11:14:47.531Z,101708.83
2018-05-03T11:17:15.429Z,101707.40
2018-05-03T11:19:43.074Z,101713.45
2018-05-03T11:22:10.727Z,101712.69
2018-05-03T11:24:38.519Z,101719.45
2018-05-03T11:27:06.093Z,101712.59
2018-05-03T11:29:33.667Z,101719.88
2018-05-03T11:32:01.770Z,101718.39
2018-05-03T11:34:29.470Z,101722.70
2018-05-03T11:36:57.143Z,101712.11
2018-05-03T11:39:24.738Z,101709.99
2018-05-03T11:41:53.020Z,101715.33
2018-05-03T11:44:21.036Z,101722.33
2018-05-03T11:46:48.590Z,101728.34
2018-05-03T11:49:16.208Z,101727.72
2018-05-03T11:51:43.856Z,101727.83
2018-05-03T11:54:11.490Z,101727.73
2018-05-03T11:56:39.099Z,101724.81
2018-05-03T11:59:06.685Z,101729.84
2018-05-03T12:01:34.291Z,101730.62
2018-05-03T12:04:01.926Z,101728.42
2018-05-03T12:06:29.747Z,101729.80
2018-05-03T12:08:57.336Z,101732.82
2018-05-03T12:11:24.882Z,101733.37
2018-05-03T12:13:52.464Z,101728.55
2018-05-03T12:16:20.040Z,101736.11
2018-05-03T12:18:47.747Z,101729.30
2018-05-03T12:21:15.298Z,101734.34
2018-05-03T12:23:42.847Z,101737.95
2018-05-03T12:26:10.901Z,101739.02
2018-05-03T12:28:38.682Z,101737.29
2018-05-03T12:31:06.335Z,101741.48
2018-05-03T12:33:33.940Z,101738.81
2018-05-03T12:36:01.563Z,101742.66
2018-05-03T12:38:29.128Z,101745.99
2018-05-03T12:40:56.701Z,101746.88
2018-05-03T12:43:24.305Z,101747.61
2018-05-03T12:45:52.114Z,101746.52
2018-05-03T12:48:19.754Z,101747.69
2018-05-03T12:50:47.458Z,101745.11
2018-05-03T12:53:15.291Z,101745.03
2018-05-03T12:55:43.351Z,101746.67
2018-05-03T12:58:10.923Z,101736.44
2018-05-03T13:00:38.533Z,101744.88
2018-05-03T13:03:06.156Z,101746.73
2018-05-03T13:05:33.705Z,101753.70
2018-05-03T13:08:01.545Z,101746.47
2018-05-03T13:10:29.126Z,101746.08
2018-05-03T13:12:56.711Z,101752.66
2018-05-03T13:15:24.256Z,101755.07
2018-05-03T13:17:52.426Z,101756.09
2018-05-03T13:20:20.093Z,101756.88
2018-05-03T13:22:47.656Z,101758.50
2018-05-03T13:25:15.275Z,101763.42
2018-05-03T13:27:42.826Z,101759.53
2018-05-03T13:30:10.505Z,101751.11
2018-05-03T13:32:38.058Z,101759.88
2018-05-03T13:35:05.674Z,101756.34
2018-05-03T13:37:33.263Z,101765.17
2018-05-03T13:40:00.931Z,101757.53
2018-05-03T13:42:28.498Z,101759.89
2018-05-03T13:44:56.044Z,101762.17
2018-05-03T13:47:23.878Z,101763.03
2018-05-03T13:49:51.403Z,101764.42
2018-05-03T13:52:18.952Z,101762.77
2018-05-03T13:54:46.527Z,101764.66
2018-05-03T13:57:14.213Z,101772.13
2018-05-03T13:59:41.828Z,101772.03
2018-05-03T14:02:09.402Z,101772.80
2018-05-03T14:04:37.213Z,101770.53
2018-05-03T14:07:04.800Z,101776.79
2018-05-03T14:09:33.358Z,101772.37
2018-05-03T14:12:00.923Z,101767.45
2018-05-03T14:14:28.473Z,101778.04
2018-05-03T14:16:56.376Z,101775.68
2018-05-03T14:19:23.980Z,101779.16
2018-05-03T14:21:51.611Z,101784.19
2018-05-03T14:24:19.158Z,101776.76
2018-05-03T14:26:47.039Z,101779.64
2018-05-03T14:29:14.661Z,101787.09
2018-05-03T14:31:42.617Z,101778.82
2018-05-03T14:34:10.175Z,101791.84
2018-05-03T14:36:37.959Z,101789.63
2018-05-03T14:39:05.624Z,101786.03
2018-05-03T14:41:33.252Z,101785.45
2018-05-03T14:44:00.945Z,101789.84
2018-05-03T14:46:28.495Z,101777.47
2018-05-03T14:48:56.071Z,101783.69
2018-05-03T14:51:23.703Z,101796.62
2018-05-03T14:53:51.696Z,101786.59
2018-05-03T14:56:19.478Z,101795.17
2018-05-03T14:58:47.094Z,101796.32
2018-05-03T15:01:14.776Z,101799.86
2018-05-03T15:03:42.424Z,101798.30
2018-05-03T15:06:10.218Z,101798.02
2018-05-03T15:08:38.039Z,101799.97
2018-05-03T15:11:05.641Z,101799.38
2018-05-03T15:13:33.268Z,101798.38
2018-05-03T15:16:00.883Z,101807.95
2018-05-03T15:18:28.778Z,101806.73
2018-05-03T15:20:56.328Z,101807.68
2018-05-03T15:23:23.892Z,101808.16
2018-05-03T15:25:51.560Z,101802.98
2018-05-03T15:28:19.125Z,101797.34
2018-05-03T15:30:46.942Z,101794.74
2018-05-03T15:33:14.520Z,101799.31
2018-05-03T15:35:42.099Z,101800.91
2018-05-03T15:38:09.698Z,101805.82
2018-05-03T15:40:37.369Z,101809.73
2018-05-03T15:43:04.926Z,101809.84
2018-05-03T15:45:32.512Z,101807.42
2018-05-03T15:48:00.146Z,101808.32
2018-05-03T15:50:27.820Z,101810.05
2018-05-03T15:52:55.369Z,101815.16
2018-05-03T15:55:22.922Z,101813.94
2018-05-03T15:57:50.521Z,101819.97
2018-05-03T16:00:18.150Z,101819.22
2018-05-03T16:02:46.401Z,101824.97
2018-05-03T16:05:13.952Z,101820.27
2018-05-03T16:07:42.418Z,101824.16
2018-05-03T16:10:09.982Z,101836.44
2018-05-03T16:12:38.010Z,101831.83
2018-05-03T16:15:05.886Z,101833.39
2018-05-03T16:17:33.476Z,101830.59
2018-05-03T16:20:01.018Z,101831.17
2018-05-03T16:22:28.890Z,101828.37
2018-05-03T16:24:56.461Z,101837.64
2018-05-03T16:27:24.102Z,101839.42
2018-05-03T16:29:51.962Z,101836.95
2018-05-03T16:32:19.696Z,101838.95
2018-05-03T16:34:47.479Z,101839.73
2018-05-03T16:37:15.099Z,101835.98
2018-05-03T16:39:42.681Z,101843.00
2018-05-03T16:42:10.263Z,101842.33
2018-05-03T16:44:37.918Z,101845.61
2018-05-03T16:47:05.726Z,101847.86
2018-05-03T16:49:33.299Z,101840.73
2018-05-03T16:52:00.992Z,101841.11
2018-05-03T16:54:28.610Z,101850.52
2018-05-03T16:56:56.293Z,101851.16
2018-05-03T16:59:23.926Z,101845.02
2018-05-03T17:01:51.482Z,101851.20
2018-05-03T17:04:19.059Z,101852.84
2018-05-03T17:06:46.631Z,101854.02
2018-05-03T17:09:14.255Z,101872.24
2018-05-03T17:11:41.898Z,101880.67
2018-05-03T17:14:09.480Z,101884.16
2018-05-03T17:16:37.507Z,101886.50
2018-05-03T17:19:05.061Z,101888.64
2018-05-03T17:21:32.605Z,101886.45
2018-05-03T17:24:00.706Z,101892.52
2018-05-03T17:26:28.334Z,101895.72
2018-05-03T17:28:55.884Z,101899.67
2018-05-03T17:31:23.551Z,101905.41
2018-05-03T17:33:51.120Z,101910.59
2018-05-03T17:36:18.800Z,101917.11
2018-05-03T17:38:46.449Z,101919.54
2018-05-03T17:41:14.000Z,101918.34
2018-05-03T17:43:41.690Z,101922.48
2018-05-03T17:46:09.259Z,101932.95
2018-05-03T17:48:37.325Z,101931.61
2018-05-03T17:51:05.046Z,101943.36
2018-05-03T17:53:32.843Z,101939.58
2018-05-03T17:56:00.514Z,101937.40
2018-05-03T17:58:28.058Z,101949.19
2018-05-03T18:00:55.669Z,101950.98
2018-05-03T18:03:23.462Z,101956.95
2018-05-03T18:05:51.017Z,101959.79
2018-05-03T18:08:18.997Z,101966.09
2018-05-03T18:10:46.628Z,101965.97
2018-05-03T18:13:14.199Z,101968.89
2018-05-03T18:15:42.646Z,101967.23
2018-05-03T18:18:10.199Z,101964.88
2018-05-03T18:20:38.066Z,101978.89
2018-05-03T18:23:06.131Z,101983.28
2018-05-03T18:25:33.682Z,101983.52
2018-05-03T18:28:01.269Z,101991.80
2018-05-03T18:30:29.157Z,102000.67
2018-05-03T18:32:56.734Z,101998.11
2018-05-03T18:35:24.282Z,101999.39
2018-05-03T18:37:51.872Z,101998.95
2018-05-03T18:40:19.693Z,102009.63
2018-05-03T18:42:47.345Z,102011.55
2018-05-03T18:45:15.041Z,102018.15
2018-05-03T18:47:42.967Z,102024.58
2018-05-03T18:50:10.852Z,102025.34
2018-05-03T18:52:38.638Z,102031.39
2018-05-03T18:55:06.311Z,102044.70
2018-05-03T18:57:33.929Z,102033.72
2018-05-03T19:00:01.569Z,102030.41
2018-05-03T19:02:29.511Z,102039.84
2018-05-03T19:04:57.368Z,102044.86
2018-05-03T19:07:24.920Z,102041.41
2018-05-03T19:09:52.560Z,102049.70
2018-05-03T19:12:20.425Z,102052.34
2018-05-03T19:14:47.975Z,102054.36
2018-05-03T19:17:15.567Z,102059.55
2018-05-03T19:19:43.140Z,102056.93
2018-05-03T19:22:10.750Z,102060.75
2018-05-03T19:24:38.335Z,102065.25
2018-05-03T19:27:05.887Z,102070.97
2018-05-03T19:29:33.937Z,102081.22
2018-05-03T19:32:01.632Z,102079.25
2018-05-03T19:34:29.217Z,102084.27
2018-05-03T19:36:56.967Z,102088.83
2018-05-03T19:39:24.586Z,102090.27
2018-05-03T19:41:52.231Z,102094.45
2018-05-03T19:44:20.052Z,102095.14
2018-05-03T19:46:47.667Z,102096.17
2018-05-03T19:49:15.538Z,102094.22
2018-05-03T19:51:43.394Z,102095.88
2018-05-03T19:54:10.985Z,102099.39
2018-05-03T19:56:39.190Z,102098.80
2018-05-03T19:59:06.731Z,102101.73
2018-05-03T20:01:34.588Z,102102.76
2018-05-03T20:04:02.164Z,102101.63
2018-05-03T20:06:29.720Z,102103.59
2018-05-03T20:08:57.677Z,102103.02
2018-05-03T20:11:25.291Z,102107.09
2018-05-03T20:13:52.843Z,102111.91
2018-05-03T20:16:20.493Z,102111.95
2018-05-03T20:18:48.040Z,102108.32
2018-05-03T20:21:16.306Z,102113.28
2018-05-03T20:23:45.372Z,102108.31
2018-05-03T20:26:12.952Z,102107.41
2018-05-03T20:28:40.545Z,102105.92
2018-05-03T20:31:08.099Z,102106.48
2018-05-03T20:33:35.686Z,102098.91
2018-05-03T20:36:03.554Z,102094.65
2018-05-03T20:38:31.228Z,102093.46
2018-05-03T20:40:58.861Z,102097.17
2018-05-03T20:43:26.416Z,102096.55
2018-05-03T20:45:54.081Z,102108.35
2018-05-03T20:48:21.615Z,102101.69
2018-05-03T20:50:49.234Z,102100.90
2018-05-03T20:53:17.109Z,102101.42
2018-05-03T20:55:44.985Z,102105.91
2018-05-03T20:58:12.603Z,102108.78
2018-05-03T21:00:40.192Z,102103.65
2018-05-03T21:03:07.786Z,102100.66
2018-05-03T21:05:35.398Z,102102.33
2018-05-03T21:08:03.034Z,102105.64
2018-05-03T21:10:30.614Z,102105.28
2018-05-03T21:12:58.246Z,102103.65
2018-05-03T21:15:25.826Z,102109.08
2018-05-03T21:17:53.614Z,102111.79
2018-05-03T21:20:21.514Z,102102.02
2018-05-03T21:22:49.104Z,102107.73
2018-05-03T21:25:16.672Z,102112.74
2018-05-03T21:27:44.230Z,102109.11
2018-05-03T21:30:11.855Z,102111.98
2018-05-03T21:32:39.436Z,102115.92
2018-05-03T21:35:07.212Z,102113.63
2018-05-03T21:37:34.791Z,102114.19
2018-05-03T21:40:02.413Z,102113.64
2018-05-03T21:42:30.598Z,102104.84
2018-05-03T21:44:58.380Z,102110.14
2018-05-03T21:47:26.002Z,102115.56
2018-05-03T21:49:53.690Z,102118.98
2018-05-03T21:52:21.522Z,102125.48
2018-05-03T21:54:49.083Z,102118.58
2018-05-03T21:57:16.698Z,102116.01
2018-05-03T21:59:44.317Z,102115.35
2018-05-03T22:02:11.954Z,102124.70
2018-05-03T22:04:39.683Z,102122.83
2018-05-03T22:07:07.308Z,102131.48
2018-05-03T22:09:34.862Z,102137.31
2018-05-03T22:12:02.522Z,102136.94
2018-05-03T22:14:30.426Z,102137.34
2018-05-03T22:16:57.974Z,102138.83
2018-05-03T22:19:25.563Z,102142.05
2018-05-03T22:21:53.232Z,102142.88
2018-05-03T22:24:20.818Z,102144.23
2018-05-03T22:26:48.420Z,102147.06
2018-05-03T22:29:16.048Z,102150.67
2018-05-03T22:31:43.590Z,102149.73
2018-05-03T22:34:11.162Z,102147.70
2018-05-03T22:36:38.855Z,102143.09
2018-05-03T22:39:06.715Z,102148.91
2018-05-03T22:41:34.445Z,102144.42
2018-05-03T22:44:02.030Z,102148.09
2018-05-03T22:46:29.675Z,102146.88
2018-05-03T22:48:57.330Z,102156.33
2018-05-03T22:51:25.243Z,102159.17
2018-05-03T22:53:52.787Z,102164.30
2018-05-03T22:56:20.407Z,102160.50
2018-05-03T22:58:48.016Z,102165.90
2018-05-03T23:01:15.554Z,102167.93
2018-05-03T23:03:43.110Z,102171.56
2018-05-03T23:06:10.710Z,102166.55
2018-05-03T23:08:38.332Z,102161.80
2018-05-03T23:11:05.877Z,102162.05
2018-05-03T23:13:33.478Z,102163.88
2018-05-03T23:16:01.040Z,102168.03
2018-05-03T23:18:28.578Z,102160.86
2018-05-03T23:20:56.490Z,102160.56
2018-05-03T23:23:24.058Z,102163.50
2018-05-03T23:25:51.668Z,102163.35
2018-05-03T23:28:19.236Z,102164.69
2018-05-03T23:30:46.919Z,102155.91
2018-05-03T23:33:14.737Z,102152.13
2018-05-03T23:35:42.437Z,102156.68
2018-05-03T23:38:09.992Z,102154.24
2018-05-03T23:40:37.902Z,102157.22
2018-05-03T23:43:05.516Z,102162.61
2018-05-03T23:45:33.122Z,102161.37
2018-05-03T23:48:00.689Z,102158.78
2018-05-03T23:50:28.467Z,102159.31
2018-05-03T23:52:56.134Z,102155.22
2018-05-03T23:55:23.671Z,102154.38
2018-05-03T23:57:51.219Z,102147.17
